createdAt,value
2018-05-11T00:01:10.289Z,101656.47
2018-05-11T00:03:38.528Z,101657.21
2018-05-11T00:06:06.844Z,101660.80
2018-05-11T00:08:35.456Z,101662.56
2018-05-11T00:11:03.765Z,101660.36
2018-05-11T00:13:32.092Z,101664.72
2018-05-11T00:16:00.936Z,101662.81
2018-05-11T00:18:29.251Z,101664.09
2018-05-11T00:20:57.432Z,101669.44
2018-05-11T00:23:26.211Z,101668.43
2018-05-11T00:25:54.387Z,101669.06
2018-05-11T00:28:22.613Z,101665.41
2018-05-11T00:30:51.326Z,101669.19
2018-05-11T00:33:19.542Z,101662.28
2018-05-11T00:35:47.727Z,101664.00
2018-05-11T00:38:16.202Z,101665.00
2018-05-11T00:40:44.402Z,101664.88
2018-05-11T00:43:12.712Z,101668.96
2018-05-11T00:45:41.337Z,101668.08
2018-05-11T00:48:09.539Z,101665.88
2018-05-11T00:50:37.947Z,101672.33
2018-05-11T00:53:06.466Z,101671.98
2018-05-11T00:55:46.575Z,101673.75
2018-05-11T00:58:14.761Z,101669.02
2018-05-11T01:00:43.149Z,101674.69
2018-05-11T01:03:11.776Z,101674.11
2018-05-11T01:05:39.975Z,101671.92
2018-05-11T01:08:08.386Z,101673.34
2018-05-11T01:10:37.001Z,101674.78
2018-05-11T01:13:05.226Z,101674.05
2018-05-11T01:15:33.625Z,101675.73
2018-05-11T01:18:02.106Z,101676.30
2018-05-11T01:20:30.294Z,101680.87
2018-05-11T01:22:58.740Z,101682.70
2018-05-11T01:25:27.382Z,101678.63
2018-05-11T01:27:55.574Z,101676.14
2018-05-11T01:30:23.993Z,101677.03
2018-05-11T01:32:52.541Z,101673.39
2018-05-11T01:35:20.763Z,101676.97
2018-05-11T01:37:49.173Z,101670.73
2018-05-11T01:40:17.757Z,101666.34
2018-05-11T01:42:46.054Z,101667.91
2018-05-11T01:45:14.292Z,101670.05
2018-05-11T01:47:42.984Z,101675.77
2018-05-11T01:50:11.214Z,101684.94
2018-05-11T01:52:39.607Z,101680.70
2018-05-11T01:55:08.078Z,101684.01
2018-05-11T01:57:36.282Z,101677.86
2018-05-11T02:00:04.646Z,101684.84
2018-05-11T02:02:33.202Z,101683.53
2018-05-11T02:05:01.405Z,101677.60
2018-05-11T02:07:29.772Z,101679.81
2018-05-11T02:09:58.407Z,101681.78
2018-05-11T02:12:26.804Z,101678.70
2018-05-11T02:14:55.059Z,101679.47
2018-05-11T02:17:23.596Z,101678.92
2018-05-11T02:19:51.815Z,101683.00
2018-05-11T02:22:20.086Z,101679.91
2018-05-11T02:24:48.606Z,101676.28
2018-05-11T02:27:16.841Z,101673.25
2018-05-11T02:29:45.233Z,101676.77
2018-05-11T02:32:13.893Z,101671.06
2018-05-11T02:34:42.205Z,101671.98
2018-05-11T02:37:10.419Z,101671.06
2018-05-11T02:39:39.024Z,101674.53
2018-05-11T02:42:07.330Z,101665.81
2018-05-11T02:44:35.828Z,101665.44
2018-05-11T02:47:04.271Z,101665.81
2018-05-11T02:49:32.572Z,101666.20
2018-05-11T02:52:00.866Z,101668.58
2018-05-11T02:54:29.767Z,101671.33
2018-05-11T02:57:19.084Z,101669.02
2018-05-11T02:59:52.906Z,101668.73
2018-05-11T03:02:21.131Z,101669.35
2018-05-11T03:04:49.644Z,101668.23
2018-05-11T03:07:18.174Z,101671.71
2018-05-11T03:09:46.424Z,101672.05
2018-05-11T03:12:14.862Z,101666.03
2018-05-11T03:14:43.143Z,101669.52
2018-05-11T03:17:11.484Z,101663.74
2018-05-11T03:19:40.102Z,101670.01
2018-05-11T03:22:08.294Z,101669.19
2018-05-11T03:24:36.534Z,101666.93
2018-05-11T03:27:05.223Z,101668.75
2018-05-11T03:29:33.447Z,101669.41
2018-05-11T03:32:01.773Z,101676.52
2018-05-11T03:34:30.483Z,101677.87
2018-05-11T03:36:58.871Z,101676.63
2018-05-11T03:39:27.059Z,101680.84
2018-05-11T03:41:55.749Z,101680.13
2018-05-11T03:44:24.036Z,101679.16
2018-05-11T03:46:52.369Z,101675.95
2018-05-11T03:49:20.848Z,101675.52
2018-05-11T03:51:49.262Z,101683.88
2018-05-11T03:54:17.494Z,101682.13
2018-05-11T03:56:46.105Z,101683.38
2018-05-11T03:59:14.306Z,101683.61
2018-05-11T04:01:54.463Z,101688.98
2018-05-11T04:04:34.545Z,101688.45
2018-05-11T04:07:14.742Z,101686.40
2018-05-11T04:09:42.923Z,101688.98
2018-05-11T04:12:11.484Z,101688.95
2018-05-11T04:14:39.675Z,101694.23
2018-05-11T04:17:08.134Z,101691.58
2018-05-11T04:19:36.645Z,101694.72
2018-05-11T04:22:05.040Z,101688.95
2018-05-11T04:24:33.224Z,101688.39
2018-05-11T04:27:01.844Z,101695.34
2018-05-11T04:29:30.077Z,101695.83
2018-05-11T04:31:58.355Z,101702.38
2018-05-11T04:34:27.000Z,101701.78
2018-05-11T04:36:55.222Z,101705.45
2018-05-11T04:39:23.953Z,101701.72
2018-05-11T04:41:52.760Z,101704.69
2018-05-11T04:44:22.809Z,101707.38
2018-05-11T04:46:51.676Z,101702.31
2018-05-11T04:49:19.885Z,101706.07
2018-05-11T04:51:48.698Z,101706.45
2018-05-11T04:54:18.704Z,101709.47
2018-05-11T04:56:50.726Z,101710.86
2018-05-11T04:59:23.832Z,101712.89
2018-05-11T05:01:59.963Z,101716.35
2018-05-11T05:04:36.861Z,101716.30
2018-05-11T05:07:08.865Z,101721.00
2018-05-11T05:09:48.573Z,101718.61
2018-05-11T05:12:18.350Z,101716.24
2018-05-11T05:14:49.365Z,101721.25
2018-05-11T05:17:17.674Z,101715.74
2018-05-11T05:19:46.077Z,101710.01
2018-05-11T05:22:14.818Z,101711.66
2018-05-11T05:24:43.334Z,101708.42
2018-05-11T05:27:11.526Z,101703.38
2018-05-11T05:29:39.953Z,101712.23
2018-05-11T05:32:08.807Z,101712.89
2018-05-11T05:34:37.119Z,101716.08
2018-05-11T05:37:05.321Z,101715.25
2018-05-11T05:39:36.791Z,101714.44
2018-05-11T05:42:08.440Z,101712.46
2018-05-11T05:44:41.670Z,101716.86
2018-05-11T05:47:17.295Z,101718.42
2018-05-11T05:49:48.227Z,101714.14
2018-05-11T05:52:17.794Z,101708.45
2018-05-11T05:54:46.866Z,101716.79
2018-05-11T05:57:17.660Z,101714.72
2018-05-11T05:59:48.449Z,101716.92
2018-05-11T06:02:19.618Z,101715.82
2018-05-11T06:04:50.664Z,101715.73
2018-05-11T06:07:20.028Z,101711.74
2018-05-11T06:09:48.265Z,101708.11
2018-05-11T06:12:16.444Z,101700.98
2018-05-11T06:14:45.155Z,101701.81
2018-05-11T06:17:13.415Z,101705.70
2018-05-11T06:19:41.597Z,101709.42
2018-05-11T06:22:10.334Z,101705.66
2018-05-11T06:24:38.590Z,101710.94
2018-05-11T06:27:06.949Z,101713.09
2018-05-11T06:29:35.774Z,101711.94
2018-05-11T06:32:04.574Z,101712.18
2018-05-11T06:34:33.018Z,101717.09
2018-05-11T06:37:01.629Z,101702.74
2018-05-11T06:39:30.245Z,101708.39
2018-05-11T06:41:58.510Z,101708.16
2018-05-11T06:44:26.779Z,101707.95
2018-05-11T06:46:55.267Z,101701.53
2018-05-11T06:49:23.472Z,101704.11
2018-05-11T06:51:51.847Z,101701.20
2018-05-11T06:54:20.434Z,101699.64
2018-05-11T06:56:48.768Z,101704.56
2018-05-11T06:59:17.270Z,101697.98
2018-05-11T07:01:46.059Z,101695.34
2018-05-11T07:04:15.068Z,101698.27
2018-05-11T07:06:43.257Z,101692.77
2018-05-11T07:09:11.551Z,101693.52
2018-05-11T07:11:40.343Z,101697.77
2018-05-11T07:14:08.533Z,101686.58
2018-05-11T07:16:36.945Z,101695.14
2018-05-11T07:19:05.488Z,101691.32
2018-05-11T07:21:33.678Z,101690.96
2018-05-11T07:24:01.929Z,101689.28
2018-05-11T07:26:30.704Z,101689.20
2018-05-11T07:28:59.054Z,101685.28
2018-05-11T07:31:27.729Z,101686.33
2018-05-11T07:33:56.287Z,101689.06
2018-05-11T07:36:24.470Z,101685.89
2018-05-11T07:38:53.066Z,101686.09
2018-05-11T07:41:21.608Z,101685.45
2018-05-11T07:43:49.823Z,101687.59
2018-05-11T07:46:18.293Z,101676.45
2018-05-11T07:48:46.705Z,101675.27
2018-05-11T07:51:14.914Z,101682.58
2018-05-11T07:53:43.345Z,101682.13
2018-05-11T07:56:11.889Z,101681.37
2018-05-11T07:58:40.107Z,101676.12
2018-05-11T08:01:08.570Z,101669.96
2018-05-11T08:03:37.087Z,101667.34
2018-05-11T08:06:05.299Z,101672.31
2018-05-11T08:08:33.634Z,101659.02
2018-05-11T08:11:02.252Z,101665.37
2018-05-11T08:13:30.458Z,101662.55
2018-05-11T08:15:58.853Z,101665.35
2018-05-11T08:18:27.473Z,101660.58
2018-05-11T08:20:55.698Z,101658.13
2018-05-11T08:23:24.074Z,101656.70
2018-05-11T08:25:52.563Z,101659.44
2018-05-11T08:28:20.808Z,101658.23
2018-05-11T08:30:49.126Z,101653.25
2018-05-11T08:33:17.739Z,101653.61
2018-05-11T08:35:46.045Z,101654.88
2018-05-11T08:38:14.335Z,101653.63
2018-05-11T08:40:42.969Z,101646.50
2018-05-11T08:43:11.190Z,101648.48
2018-05-11T08:45:39.621Z,101643.23
2018-05-11T08:48:08.096Z,101639.48
2018-05-11T08:50:36.301Z,101642.84
2018-05-11T08:53:04.873Z,101641.54
2018-05-11T08:55:33.294Z,101631.41
2018-05-11T08:58:01.530Z,101624.36
2018-05-11T09:00:29.814Z,101626.83
2018-05-11T09:02:58.533Z,101623.35
2018-05-11T09:05:26.689Z,101624.59
2018-05-11T09:07:55.106Z,101619.13
2018-05-11T09:10:23.688Z,101622.95
2018-05-11T09:12:51.882Z,101619.77
2018-05-11T09:15:20.244Z,101621.20
2018-05-11T09:17:48.879Z,101619.31
2018-05-11T09:20:17.074Z,101608.28
2018-05-11T09:22:45.398Z,101609.55
2018-05-11T09:25:14.021Z,101602.95
2018-05-11T09:27:42.230Z,101605.09
2018-05-11T09:30:10.512Z,101607.47
2018-05-11T09:32:39.092Z,101597.89
2018-05-11T09:35:07.334Z,101594.88
2018-05-11T09:37:35.767Z,101590.14
2018-05-11T09:40:04.259Z,101585.37
2018-05-11T09:42:32.461Z,101580.86
2018-05-11T09:45:00.939Z,101583.77
2018-05-11T09:47:29.596Z,101581.98
2018-05-11T09:49:57.907Z,101581.62
2018-05-11T09:52:26.108Z,101581.68
2018-05-11T09:54:54.701Z,101584.68
2018-05-11T09:57:22.940Z,101577.59
2018-05-11T09:59:51.276Z,101573.50
2018-05-11T10:02:19.852Z,101583.37
2018-05-11T10:04:48.043Z,101574.95
2018-05-11T10:07:16.483Z,101568.67
2018-05-11T10:09:45.106Z,101572.06
2018-05-11T10:12:13.340Z,101568.25
2018-05-11T10:14:41.607Z,101569.84
2018-05-11T10:17:10.212Z,101558.28
2018-05-11T10:19:38.429Z,101556.97
2018-05-11T10:22:06.818Z,101560.56
2018-05-11T10:24:35.442Z,101556.84
2018-05-11T10:27:03.652Z,101554.23
2018-05-11T10:29:32.027Z,101555.54
2018-05-11T10:32:00.573Z,101556.23
2018-05-11T10:34:28.913Z,101550.42
2018-05-11T10:36:57.208Z,101551.05
2018-05-11T10:39:25.749Z,101542.50
2018-05-11T10:41:53.980Z,101540.00
2018-05-11T10:44:22.365Z,101534.16
2018-05-11T10:46:50.866Z,101533.31
2018-05-11T10:49:19.098Z,101523.95
2018-05-11T10:51:47.491Z,101529.64
2018-05-11T10:54:16.197Z,101521.86
2018-05-11T10:56:44.376Z,101522.93
2018-05-11T10:59:12.762Z,101512.16
2018-05-11T11:01:41.339Z,101516.56
2018-05-11T11:04:09.533Z,101515.34
2018-05-11T11:06:37.886Z,101510.34
2018-05-11T11:09:06.610Z,101518.45
2018-05-11T11:11:34.854Z,101514.94
2018-05-11T11:14:03.136Z,101514.53
2018-05-11T11:16:31.714Z,101503.19
2018-05-11T11:19:00.041Z,101506.84
2018-05-11T11:21:28.242Z,101510.91
2018-05-11T11:23:56.848Z,101501.34
2018-05-11T11:26:25.023Z,101493.14
2018-05-11T11:28:53.422Z,101491.78
2018-05-11T11:31:22.023Z,101487.70
2018-05-11T11:33:50.263Z,101485.21
2018-05-11T11:36:18.652Z,101487.34
2018-05-11T11:38:47.322Z,101478.26
2018-05-11T11:41:15.521Z,101480.42
2018-05-11T11:43:43.893Z,101467.52
2018-05-11T11:46:12.465Z,101468.11
2018-05-11T11:48:40.666Z,101463.23
2018-05-11T11:51:08.971Z,101461.13
2018-05-11T11:53:37.604Z,101456.33
2018-05-11T11:56:05.790Z,101450.37
2018-05-11T11:58:34.158Z,101452.55
2018-05-11T12:01:02.835Z,101446.00
2018-05-11T12:03:31.093Z,101437.94
2018-05-11T12:05:59.376Z,101436.30
2018-05-11T12:08:27.903Z,101437.42
2018-05-11T12:10:56.126Z,101430.58
2018-05-11T12:13:24.453Z,101434.00
2018-05-11T12:15:53.087Z,101432.48
2018-05-11T12:18:21.260Z,101431.16
2018-05-11T12:20:49.633Z,101427.96
2018-05-11T12:23:18.251Z,101424.03
2018-05-11T12:25:46.448Z,101414.39
2018-05-11T12:28:14.756Z,101419.03
2018-05-11T12:30:43.455Z,101409.64
2018-05-11T12:33:11.647Z,101411.18
2018-05-11T12:35:40.008Z,101408.94
2018-05-11T12:38:08.635Z,101408.88
2018-05-11T12:40:36.866Z,101397.75
2018-05-11T12:43:05.167Z,101396.48
2018-05-11T12:45:33.771Z,101400.41
2018-05-11T12:48:01.975Z,101396.52
2018-05-11T12:50:30.392Z,101397.78
2018-05-11T12:52:59.043Z,101402.55
2018-05-11T12:55:27.177Z,101392.08
2018-05-11T12:57:55.439Z,101394.28
2018-05-11T13:00:24.127Z,101391.27
2018-05-11T13:02:52.305Z,101381.30
2018-05-11T13:05:20.597Z,101383.84
2018-05-11T13:07:49.265Z,101379.37
2018-05-11T13:10:17.453Z,101373.86
2018-05-11T13:12:45.787Z,101369.91
2018-05-11T13:15:14.396Z,101372.33
2018-05-11T13:17:42.617Z,101365.01
2018-05-11T13:20:10.936Z,101357.46
2018-05-11T13:22:39.558Z,101351.92
2018-05-11T13:25:07.789Z,101357.17
2018-05-11T13:27:36.208Z,101348.23
2018-05-11T13:30:04.933Z,101354.16
2018-05-11T13:32:33.127Z,101354.83
2018-05-11T13:35:01.315Z,101349.59
2018-05-11T13:37:29.997Z,101345.05
2018-05-11T13:39:58.212Z,101348.45
2018-05-11T13:42:26.627Z,101343.38
2018-05-11T13:44:55.129Z,101332.88
2018-05-11T13:47:23.324Z,101339.46
2018-05-11T13:49:51.660Z,101336.27
2018-05-11T13:52:20.242Z,101333.41
2018-05-11T13:54:48.437Z,101332.33
2018-05-11T13:57:16.897Z,101332.30
2018-05-11T13:59:45.472Z,101332.31
2018-05-11T14:02:13.697Z,101318.48
2018-05-11T14:04:41.960Z,101326.02
2018-05-11T14:07:10.214Z,101322.60
2018-05-11T14:09:38.395Z,101322.67
2018-05-11T14:12:06.619Z,101318.66
2018-05-11T14:14:35.378Z,101322.59
2018-05-11T14:17:03.547Z,101315.84
2018-05-11T14:19:31.831Z,101321.33
2018-05-11T14:22:00.512Z,101306.59
2018-05-11T14:24:28.705Z,101309.62
2018-05-11T14:26:57.067Z,101298.84
2018-05-11T14:29:25.747Z,101306.95
2018-05-11T14:31:54.014Z,101302.87
2018-05-11T14:34:22.141Z,101298.11
2018-05-11T14:36:50.884Z,101297.53
2018-05-11T14:39:19.116Z,101288.66
2018-05-11T14:41:47.280Z,101289.80
2018-05-11T14:44:16.475Z,101295.58
2018-05-11T14:46:44.678Z,101286.62
2018-05-11T14:49:13.237Z,101292.97
2018-05-11T14:51:41.803Z,101285.77
2018-05-11T14:54:09.992Z,101280.97
2018-05-11T14:56:38.307Z,101266.39
2018-05-11T14:59:06.982Z,101270.81
2018-05-11T15:01:35.203Z,101275.13
2018-05-11T15:04:03.526Z,101273.87
2018-05-11T15:06:32.048Z,101264.44
2018-05-11T15:09:00.253Z,101258.23
2018-05-11T15:11:28.664Z,101260.87
2018-05-11T15:13:57.084Z,101253.98
2018-05-11T15:16:25.261Z,101248.76
2018-05-11T15:18:54.014Z,101252.53
2018-05-11T15:21:22.712Z,101250.02
2018-05-11T15:23:50.893Z,101248.43
2018-05-11T15:26:19.160Z,101243.48
2018-05-11T15:28:47.982Z,101238.86
2018-05-11T15:31:16.361Z,101238.69
2018-05-11T15:33:44.993Z,101238.70
2018-05-11T15:36:13.604Z,101234.55
2018-05-11T15:38:41.822Z,101234.45
2018-05-11T15:41:10.011Z,101241.39
2018-05-11T15:43:38.643Z,101233.28
2018-05-11T15:46:06.938Z,101232.70
2018-05-11T15:48:35.360Z,101226.87
2018-05-11T15:51:03.880Z,101227.59
2018-05-11T15:53:32.100Z,101225.20
2018-05-11T15:56:00.465Z,101221.94
2018-05-11T15:58:28.995Z,101226.13
2018-05-11T16:00:57.194Z,101222.98
2018-05-11T16:03:25.614Z,101225.80
2018-05-11T16:05:54.319Z,101224.66
2018-05-11T16:08:22.548Z,101214.59
2018-05-11T16:10:50.735Z,101211.45
2018-05-11T16:13:19.009Z,101208.50
2018-05-11T16:15:47.196Z,101216.69
2018-05-11T16:18:16.044Z,101207.13
2018-05-11T16:20:46.539Z,101204.89
2018-05-11T16:23:15.560Z,101206.27
2018-05-11T16:25:43.760Z,101199.30
2018-05-11T16:28:12.259Z,101203.55
2018-05-11T16:30:40.966Z,101197.98
2018-05-11T16:33:09.183Z,101195.73
2018-05-11T16:35:37.392Z,101193.05
2018-05-11T16:38:05.994Z,101197.09
2018-05-11T16:40:34.307Z,101203.83
2018-05-11T16:43:02.395Z,101192.48
2018-05-11T16:45:31.127Z,101190.33
2018-05-11T16:47:59.331Z,101193.73
2018-05-11T16:50:27.503Z,101188.20
2018-05-11T16:52:56.495Z,101189.96
2018-05-11T16:55:25.199Z,101190.27
2018-05-11T16:57:53.373Z,101184.68
2018-05-11T17:00:21.558Z,101182.10
2018-05-11T17:02:50.211Z,101180.98
2018-05-11T17:05:18.392Z,101186.14
2018-05-11T17:07:46.646Z,101182.24
2018-05-11T17:10:15.375Z,101180.55
2018-05-11T17:12:43.560Z,101176.52
2018-05-11T17:15:12.481Z,101171.21
2018-05-11T17:17:41.702Z,101169.14
2018-05-11T17:20:11.007Z,101166.59
2018-05-11T17:22:39.333Z,101172.75
2018-05-11T17:25:08.304Z,101167.44
2018-05-11T17:27:37.263Z,101168.20
2018-05-11T17:30:05.552Z,101166.34
2018-05-11T17:32:34.596Z,101173.51
2018-05-11T17:35:03.633Z,101174.25
2018-05-11T17:37:32.175Z,101175.83
2018-05-11T17:40:00.843Z,101173.81
2018-05-11T17:42:29.348Z,101173.98
2018-05-11T17:44:58.173Z,101169.56
2018-05-11T17:47:27.175Z,101169.35
2018-05-11T17:49:55.400Z,101166.69
2018-05-11T17:52:24.305Z,101167.84
2018-05-11T17:54:53.037Z,101167.64
2018-05-11T17:57:21.260Z,101169.00
2018-05-11T17:59:49.436Z,101168.35
2018-05-11T18:02:18.380Z,101165.91
2018-05-11T18:04:46.733Z,101170.22
2018-05-11T18:07:14.977Z,101163.42
2018-05-11T18:09:43.895Z,101161.03
2018-05-11T18:12:12.526Z,101163.99
2018-05-11T18:14:40.744Z,101161.41
2018-05-11T18:17:09.742Z,101163.70
2018-05-11T18:19:38.864Z,101164.88
2018-05-11T18:22:07.578Z,101167.19
2018-05-11T18:24:35.813Z,101164.90
2018-05-11T18:27:04.596Z,101165.78
2018-05-11T18:29:33.451Z,101157.42
2018-05-11T18:32:02.498Z,101158.60
2018-05-11T18:34:31.005Z,101151.94
2018-05-11T18:36:59.569Z,101153.59
2018-05-11T18:39:28.455Z,101156.52
2018-05-11T18:41:57.692Z,101154.48
2018-05-11T18:44:25.917Z,101153.84
2018-05-11T18:46:54.774Z,101155.54
2018-05-11T18:49:23.919Z,101159.15
2018-05-11T18:51:53.217Z,101157.67
2018-05-11T18:54:22.617Z,101156.41
2018-05-11T18:56:50.720Z,101154.06
2018-05-11T18:59:19.302Z,101159.29
2018-05-11T19:01:48.236Z,101163.44
2018-05-11T19:04:17.286Z,101165.00
2018-05-11T19:06:45.748Z,101169.27
2018-05-11T19:09:14.345Z,101166.78
2018-05-11T19:11:43.293Z,101168.97
2018-05-11T19:14:12.208Z,101167.18
2018-05-11T19:16:40.392Z,101173.28
2018-05-11T19:19:09.374Z,101171.88
2018-05-11T19:21:38.302Z,101188.12
2018-05-11T19:24:07.258Z,101185.63
2018-05-11T19:26:35.444Z,101187.53
2018-05-11T19:29:03.658Z,101189.11
2018-05-11T19:31:32.317Z,101193.20
2018-05-11T19:34:00.500Z,101195.42
2018-05-11T19:36:28.697Z,101195.62
2018-05-11T19:38:57.430Z,101193.59
2018-05-11T19:41:25.614Z,101199.42
2018-05-11T19:43:53.815Z,101194.59
2018-05-11T19:46:22.537Z,101203.17
2018-05-11T19:48:50.717Z,101195.97
2018-05-11T19:51:18.913Z,101199.01
2018-05-11T19:53:47.637Z,101199.17
2018-05-11T19:56:15.846Z,101200.16
2018-05-11T19:58:44.108Z,101206.53
2018-05-11T20:01:12.724Z,101205.11
2018-05-11T20:03:40.913Z,101214.59
2018-05-11T20:06:09.092Z,101207.74
2018-05-11T20:08:37.751Z,101210.88
2018-05-11T20:11:05.982Z,101205.02
2018-05-11T20:13:34.164Z,101207.05
2018-05-11T20:16:02.888Z,101209.80
2018-05-11T20:18:31.080Z,101207.72
2018-05-11T20:20:59.269Z,101209.71
2018-05-11T20:23:28.025Z,101214.35
2018-05-11T20:25:56.201Z,101218.08
2018-05-11T20:28:24.391Z,101207.22
2018-05-11T20:30:53.189Z,101204.77
2018-05-11T20:33:21.394Z,101212.23
2018-05-11T20:35:50.170Z,101214.16
2018-05-11T20:38:18.818Z,101210.14
2018-05-11T20:40:47.106Z,101219.38
2018-05-11T20:43:15.758Z,101218.98
2018-05-11T20:45:44.318Z,101213.74
2018-05-11T20:48:12.513Z,101214.34
2018-05-11T20:50:40.751Z,101212.39
2018-05-11T20:53:09.451Z,101212.13
2018-05-11T20:55:37.697Z,101212.01
2018-05-11T20:58:05.881Z,101208.70
2018-05-11T21:00:34.471Z,101214.45
2018-05-11T21:03:02.700Z,101222.05
2018-05-11T21:05:30.897Z,101217.53
2018-05-11T21:07:59.555Z,101206.36
2018-05-11T21:10:27.790Z,101203.55
2018-05-11T21:12:55.964Z,101212.09
2018-05-11T21:15:24.628Z,101204.91
2018-05-11T21:17:52.826Z,101204.50
2018-05-11T21:20:21.000Z,101201.91
2018-05-11T21:22:49.777Z,101203.94
2018-05-11T21:25:18.007Z,101210.20
2018-05-11T21:27:46.179Z,101208.98
2018-05-11T21:30:14.744Z,101209.20
2018-05-11T21:32:42.998Z,101204.15
2018-05-11T21:35:12.055Z,101210.30
2018-05-11T21:37:40.494Z,101205.65
2018-05-11T21:40:09.172Z,101206.23
2018-05-11T21:42:37.355Z,101211.64
2018-05-11T21:45:05.555Z,101209.02
2018-05-11T21:47:34.212Z,101206.52
2018-05-11T21:50:02.392Z,101208.59
2018-05-11T21:52:30.607Z,101207.80
2018-05-11T21:54:59.241Z,101212.67
2018-05-11T21:57:27.434Z,101215.91
2018-05-11T21:59:55.624Z,101205.23
2018-05-11T22:02:24.384Z,101216.81
2018-05-11T22:04:52.564Z,101213.89
2018-05-11T22:07:20.740Z,101214.33
2018-05-11T22:09:49.464Z,101211.27
2018-05-11T22:12:17.654Z,101210.97
2018-05-11T22:14:45.825Z,101213.14
2018-05-11T22:17:14.555Z,101209.78
2018-05-11T22:19:42.711Z,101211.19
2018-05-11T22:22:10.908Z,101214.98
2018-05-11T22:24:39.684Z,101213.91
2018-05-11T22:27:07.884Z,101212.31
2018-05-11T22:29:36.074Z,101221.59
2018-05-11T22:32:04.831Z,101221.48
2018-05-11T22:34:33.001Z,101219.42
2018-05-11T22:37:01.300Z,101216.14
2018-05-11T22:39:30.046Z,101217.16
2018-05-11T22:41:58.248Z,101219.24
2018-05-11T22:44:26.456Z,101221.91
2018-05-11T22:46:55.272Z,101221.98
2018-05-11T22:49:23.444Z,101216.25
2018-05-11T22:51:51.656Z,101211.89
2018-05-11T22:54:20.367Z,101210.98
2018-05-11T22:56:48.552Z,101212.53
2018-05-11T22:59:17.298Z,101213.58
2018-05-11T23:01:45.951Z,101212.42
2018-05-11T23:04:14.259Z,101207.01
2018-05-11T23:06:42.436Z,101215.23
2018-05-11T23:09:10.947Z,101208.84
2018-05-11T23:11:39.162Z,101211.83
2018-05-11T23:14:07.593Z,101212.41
2018-05-11T23:16:36.103Z,101207.89
2018-05-11T23:19:04.317Z,101212.61
2018-05-11T23:21:32.618Z,101219.05
2018-05-11T23:24:01.103Z,101217.13
2018-05-11T23:26:29.292Z,101226.36
2018-05-11T23:28:57.647Z,101217.90
2018-05-11T23:31:26.237Z,101218.40
2018-05-11T23:33:54.418Z,101220.52
2018-05-11T23:36:22.818Z,101218.92
2018-05-11T23:38:51.448Z,101220.83
2018-05-11T23:41:19.635Z,101218.40
2018-05-11T23:43:47.942Z,101218.47
2018-05-11T23:46:16.435Z,101215.94
2018-05-11T23:48:44.657Z,101211.94
2018-05-11T23:51:12.973Z,101211.14
2018-05-11T23:53:41.585Z,101213.37
2018-05-11T23:56:09.771Z,101211.81
2018-05-11T23:58:38.131Z,101210.98
